sensor_id;sensor_type;location;lat;lon;timestamp;pressure;altitude;pressure_sealevel;temperature;humidity
46087;BME280;31824;49.648;8.640;2023-07-20T00:02:43;100117.34;;;20.05;100.00
46087;BME280;31824;49.648;8.640;2023-07-20T00:05:46;100119.88;;;20.02;100.00
46087;BME280;31824;49.648;8.640;2023-07-20T00:08:53;100126.63;;;19.95;100.00
46087;BME280;31824;49.648;8.640;2023-07-20T00:11:56;100120.94;;;19.89;100.00
46087;BME280;31824;49.648;8.640;2023-07-20T00:14:58;100120.03;;;19.88;100.00
46087;BME280;31824;49.648;8.640;2023-07-20T00:18:04;100120.03;;;19.88;100.00
46087;BME280;31824;49.648;8.640;2023-07-20T00:21:06;100123.28;;;19.83;100.00
46087;BME280;31824;49.648;8.640;2023-07-20T00:24:08;100125.72;;;19.80;100.00
46087;BME280;31824;49.648;8.640;2023-07-20T00:27:10;100126.47;;;19.77;100.00
46087;BME280;31824;49.648;8.640;2023-07-20T00:30:13;100121.00;;;19.74;100.00
46087;BME280;31824;49.648;8.640;2023-07-20T00:33:27;100122.31;;;19.66;100.00
46087;BME280;31824;49.648;8.640;2023-07-20T00:36:30;100123.56;;;19.72;100.00
46087;BME280;31824;49.648;8.640;2023-07-20T00:39:32;100125.72;;;19.63;100.00
46087;BME280;31824;49.648;8.640;2023-07-20T00:42:34;100129.97;;;19.60;100.00
46087;BME280;31824;49.648;8.640;2023-07-20T00:45:37;100133.06;;;19.51;100.00
46087;BME280;31824;49.648;8.640;2023-07-20T00:48:43;100131.28;;;19.51;100.00
46087;BME280;31824;49.648;8.640;2023-07-20T00:51:48;100138.63;;;19.55;100.00
46087;BME280;31824;49.648;8.640;2023-07-20T00:54:56;100137.69;;;19.38;100.00
46087;BME280;31824;49.648;8.640;2023-07-20T00:57:59;100141.25;;;19.22;100.00
46087;BME280;31824;49.648;8.640;2023-07-20T01:01:05;100143.91;;;19.22;100.00
46087;BME280;31824;49.648;8.640;2023-07-20T01:04:12;100141.19;;;19.06;100.00
46087;BME280;31824;49.648;8.640;2023-07-20T01:07:22;100132.03;;;18.86;100.00
46087;BME280;31824;49.648;8.640;2023-07-20T01:10:33;100141.84;;;18.87;100.00
46087;BME280;31824;49.648;8.640;2023-07-20T01:13:39;100130.34;;;18.56;100.00
46087;BME280;31824;49.648;8.640;2023-07-20T01:16:41;100132.91;;;18.70;100.00
46087;BME280;31824;49.648;8.640;2023-07-20T01:19:45;100132.16;;;18.43;100.00
46087;BME280;31824;49.648;8.640;2023-07-20T01:23:05;100131.53;;;18.32;100.00
46087;BME280;31824;49.648;8.640;2023-07-20T01:26:37;100129.94;;;18.20;100.00
46087;BME280;31824;49.648;8.640;2023-07-20T01:30:08;100138.94;;;18.08;100.00
46087;BME280;31824;49.648;8.640;2023-07-20T01:33:17;100139.38;;;18.15;100.00
46087;BME280;31824;49.648;8.640;2023-07-20T01:36:22;100128.75;;;18.15;100.00
46087;BME280;31824;49.648;8.640;2023-07-20T01:39:26;100125.88;;;17.97;100.00
46087;BME280;31824;49.648;8.640;2023-07-20T01:42:29;100128.44;;;17.96;100.00
46087;BME280;31824;49.648;8.640;2023-07-20T01:45:31;100131.94;;;18.10;100.00
46087;BME280;31824;49.648;8.640;2023-07-20T01:48:37;100145.13;;;17.80;100.00
46087;BME280;31824;49.648;8.640;2023-07-20T01:51:40;100140.91;;;17.97;100.00
46087;BME280;31824;49.648;8.640;2023-07-20T01:54:42;100137.78;;;17.47;100.00
46087;BME280;31824;49.648;8.640;2023-07-20T01:57:46;100135.75;;;17.43;100.00
46087;BME280;31824;49.648;8.640;2023-07-20T02:00:48;100128.06;;;17.61;100.00
46087;BME280;31824;49.648;8.640;2023-07-20T02:03:54;100132.53;;;17.62;100.00
46087;BME280;31824;49.648;8.640;2023-07-20T02:06:57;100132.53;;;17.62;100.00
46087;BME280;31824;49.648;8.640;2023-07-20T02:09:59;100132.31;;;17.31;100.00
46087;BME280;31824;49.648;8.640;2023-07-20T02:13:08;100139.50;;;17.18;100.00
46087;BME280;31824;49.648;8.640;2023-07-20T02:16:10;100139.25;;;17.42;100.00
46087;BME280;31824;49.648;8.640;2023-07-20T02:19:27;100136.72;;;17.30;100.00
46087;BME280;31824;49.648;8.640;2023-07-20T02:22:29;100136.03;;;17.19;100.00
46087;BME280;31824;49.648;8.640;2023-07-20T02:25:31;100132.88;;;17.12;100.00
46087;BME280;31824;49.648;8.640;2023-07-20T02:28:34;100141.25;;;16.91;100.00
46087;BME280;31824;49.648;8.640;2023-07-20T02:31:39;100138.91;;;16.96;100.00
46087;BME280;31824;49.648;8.640;2023-07-20T02:34:45;100137.28;;;16.98;100.00
46087;BME280;31824;49.648;8.640;2023-07-20T02:37:47;100134.91;;;16.62;100.00
46087;BME280;31824;49.648;8.640;2023-07-20T02:40:49;100141.31;;;16.79;100.00
46087;BME280;31824;49.648;8.640;2023-07-20T02:43:52;100149.88;;;16.48;100.00
46087;BME280;31824;49.648;8.640;2023-07-20T02:46:53;100147.09;;;16.47;100.00
46087;BME280;31824;49.648;8.640;2023-07-20T02:49:57;100141.31;;;16.52;100.00
46087;BME280;31824;49.648;8.640;2023-07-20T02:53:00;100149.56;;;16.44;100.00
46087;BME280;31824;49.648;8.640;2023-07-20T02:56:04;100152.09;;;16.42;100.00
46087;BME280;31824;49.648;8.640;2023-07-20T02:59:06;100152.41;;;16.33;100.00
46087;BME280;31824;49.648;8.640;2023-07-20T03:02:08;100163.94;;;16.47;100.00
46087;BME280;31824;49.648;8.640;2023-07-20T03:05:13;100154.31;;;16.23;100.00
46087;BME280;31824;49.648;8.640;2023-07-20T03:08:15;100161.03;;;16.17;100.00
46087;BME280;31824;49.648;8.640;2023-07-20T03:11:19;100147.72;;;16.29;100.00
46087;BME280;31824;49.648;8.640;2023-07-20T03:14:21;100152.59;;;15.98;100.00
46087;BME280;31824;49.648;8.640;2023-07-20T03:17:24;100147.88;;;16.19;100.00
46087;BME280;31824;49.648;8.640;2023-07-20T03:20:29;100150.44;;;16.17;100.00
46087;BME280;31824;49.648;8.640;2023-07-20T03:23:32;100144.44;;;16.20;100.00
46087;BME280;31824;49.648;8.640;2023-07-20T03:26:34;100146.44;;;16.11;100.00
46087;BME280;31824;49.648;8.640;2023-07-20T03:29:37;100152.66;;;15.86;100.00
46087;BME280;31824;49.648;8.640;2023-07-20T03:32:40;100158.94;;;16.00;100.00
46087;BME280;31824;49.648;8.640;2023-07-20T03:35:49;100157.19;;;16.00;100.00
46087;BME280;31824;49.648;8.640;2023-07-20T03:38:53;100157.16;;;15.75;100.00
46087;BME280;31824;49.648;8.640;2023-07-20T03:41:55;100157.97;;;15.86;100.00
46087;BME280;31824;49.648;8.640;2023-07-20T03:44:57;100162.25;;;15.72;100.00
46087;BME280;31824;49.648;8.640;2023-07-20T03:48:00;100164.66;;;15.81;100.00
46087;BME280;31824;49.648;8.640;2023-07-20T03:51:04;100164.19;;;15.75;100.00
46087;BME280;31824;49.648;8.640;2023-07-20T03:54:06;100162.97;;;15.69;100.00
46087;BME280;31824;49.648;8.640;2023-07-20T03:57:09;100168.25;;;15.69;100.00
46087;BME280;31824;49.648;8.640;2023-07-20T04:00:13;100169.25;;;15.72;100.00
46087;BME280;31824;49.648;8.640;2023-07-20T04:03:16;100172.25;;;15.76;100.00
46087;BME280;31824;49.648;8.640;2023-07-20T04:06:21;100174.78;;;15.86;100.00
46087;BME280;31824;49.648;8.640;2023-07-20T04:09:32;100175.59;;;15.74;100.00
46087;BME280;31824;49.648;8.640;2023-07-20T04:12:34;100181.59;;;15.83;100.00
46087;BME280;31824;49.648;8.640;2023-07-20T04:15:37;100182.13;;;15.79;100.00
46087;BME280;31824;49.648;8.640;2023-07-20T04:18:40;100179.53;;;15.67;100.00
46087;BME280;31824;49.648;8.640;2023-07-20T04:21:44;100183.06;;;15.79;100.00
46087;BME280;31824;49.648;8.640;2023-07-20T04:24:46;100188.66;;;15.59;100.00
46087;BME280;31824;49.648;8.640;2023-07-20T04:27:48;100184.47;;;15.74;100.00
46087;BME280;31824;49.648;8.640;2023-07-20T04:30:53;100189.53;;;15.71;100.00
46087;BME280;31824;49.648;8.640;2023-07-20T04:33:56;100191.81;;;15.90;100.00
46087;BME280;31824;49.648;8.640;2023-07-20T04:37:01;100189.38;;;15.93;100.00
46087;BME280;31824;49.648;8.640;2023-07-20T04:40:05;100192.22;;;15.59;100.00
46087;BME280;31824;49.648;8.640;2023-07-20T04:43:07;100196.44;;;15.69;100.00
46087;BME280;31824;49.648;8.640;2023-07-20T04:46:10;100201.16;;;15.85;100.00
46087;BME280;31824;49.648;8.640;2023-07-20T04:49:20;100196.47;;;16.06;100.00
46087;BME280;31824;49.648;8.640;2023-07-20T04:52:24;100194.63;;;16.44;100.00
46087;BME280;31824;49.648;8.640;2023-07-20T04:55:48;100195.56;;;16.58;100.00
46087;BME280;31824;49.648;8.640;2023-07-20T04:58:54;100190.44;;;16.99;100.00
46087;BME280;31824;49.648;8.640;2023-07-20T05:01:56;100198.50;;;17.14;100.00
46087;BME280;31824;49.648;8.640;2023-07-20T05:04:59;100198.69;;;17.17;100.00
46087;BME280;31824;49.648;8.640;2023-07-20T05:08:03;100186.31;;;17.45;100.00
46087;BME280;31824;49.648;8.640;2023-07-20T05:11:06;100190.88;;;17.61;100.00
46087;BME280;31824;49.648;8.640;2023-07-20T05:14:09;100187.44;;;17.48;100.00
46087;BME280;31824;49.648;8.640;2023-07-20T05:17:12;100192.56;;;17.45;100.00
46087;BME280;31824;49.648;8.640;2023-07-20T05:20:17;100186.03;;;17.40;100.00
46087;BME280;31824;49.648;8.640;2023-07-20T05:23:21;100186.19;;;17.57;100.00
46087;BME280;31824;49.648;8.640;2023-07-20T05:26:23;100186.44;;;17.75;100.00
46087;BME280;31824;49.648;8.640;2023-07-20T05:29:26;100192.41;;;17.99;100.00
46087;BME280;31824;49.648;8.640;2023-07-20T05:32:28;100192.81;;;18.05;100.00
46087;BME280;31824;49.648;8.640;2023-07-20T05:35:30;100183.31;;;18.23;100.00
46087;BME280;31824;49.648;8.640;2023-07-20T05:38:33;100187.09;;;18.42;100.00
46087;BME280;31824;49.648;8.640;2023-07-20T05:41:41;100186.28;;;18.58;100.00
46087;BME280;31824;49.648;8.640;2023-07-20T05:44:42;100186.28;;;18.58;100.00
46087;BME280;31824;49.648;8.640;2023-07-20T05:47:50;100189.28;;;18.64;100.00
46087;BME280;31824;49.648;8.640;2023-07-20T05:50:53;100193.63;;;18.47;100.00
46087;BME280;31824;49.648;8.640;2023-07-20T05:53:56;100193.16;;;18.54;100.00
46087;BME280;31824;49.648;8.640;2023-07-20T05:56:58;100198.84;;;18.61;100.00
46087;BME280;31824;49.648;8.640;2023-07-20T06:00:20;100190.16;;;18.63;100.00
46087;BME280;31824;49.648;8.640;2023-07-20T06:03:27;100191.59;;;18.73;100.00
46087;BME280;31824;49.648;8.640;2023-07-20T06:06:30;100193.78;;;18.80;100.00
46087;BME280;31824;49.648;8.640;2023-07-20T06:09:33;100195.66;;;18.81;100.00
46087;BME280;31824;49.648;8.640;2023-07-20T06:12:35;100189.59;;;18.84;100.00
46087;BME280;31824;49.648;8.640;2023-07-20T06:15:37;100202.63;;;18.94;100.00
46087;BME280;31824;49.648;8.640;2023-07-20T06:18:40;100201.00;;;18.96;100.00
46087;BME280;31824;49.648;8.640;2023-07-20T06:21:42;100201.72;;;18.94;100.00
46087;BME280;31824;49.648;8.640;2023-07-20T06:24:46;100199.88;;;18.93;100.00
46087;BME280;31824;49.648;8.640;2023-07-20T06:27:49;100201.22;;;18.86;100.00
46087;BME280;31824;49.648;8.640;2023-07-20T06:30:51;100197.84;;;19.03;100.00
46087;BME280;31824;49.648;8.640;2023-07-20T06:33:53;100193.22;;;19.16;100.00
46087;BME280;31824;49.648;8.640;2023-07-20T06:36:55;100205.31;;;19.26;100.00
46087;BME280;31824;49.648;8.640;2023-07-20T06:39:58;100197.28;;;19.09;100.00
46087;BME280;31824;49.648;8.640;2023-07-20T06:43:02;100202.38;;;18.89;100.00
46087;BME280;31824;49.648;8.640;2023-07-20T06:46:27;100204.44;;;19.10;100.00
46087;BME280;31824;49.648;8.640;2023-07-20T06:49:29;100210.28;;;19.34;100.00
46087;BME280;31824;49.648;8.640;2023-07-20T06:52:31;100215.00;;;19.23;100.00
46087;BME280;31824;49.648;8.640;2023-07-20T06:55:35;100210.47;;;19.22;100.00
46087;BME280;31824;49.648;8.640;2023-07-20T06:58:43;100214.06;;;19.38;100.00
46087;BME280;31824;49.648;8.640;2023-07-20T07:01:45;100218.34;;;19.36;100.00
46087;BME280;31824;49.648;8.640;2023-07-20T07:04:47;100216.16;;;19.44;100.00
46087;BME280;31824;49.648;8.640;2023-07-20T07:07:49;100213.00;;;19.51;100.00
46087;BME280;31824;49.648;8.640;2023-07-20T07:10:52;100218.31;;;19.51;100.00
46087;BME280;31824;49.648;8.640;2023-07-20T07:13:55;100220.41;;;19.25;100.00
46087;BME280;31824;49.648;8.640;2023-07-20T07:16:58;100216.50;;;19.35;100.00
46087;BME280;31824;49.648;8.640;2023-07-20T07:20:00;100216.34;;;19.63;100.00
46087;BME280;31824;49.648;8.640;2023-07-20T07:23:22;100218.34;;;19.67;100.00
46087;BME280;31824;49.648;8.640;2023-07-20T07:26:27;100223.19;;;20.06;100.00
46087;BME280;31824;49.648;8.640;2023-07-20T07:29:29;100221.84;;;20.31;100.00
46087;BME280;31824;49.648;8.640;2023-07-20T07:32:31;100215.66;;;20.15;100.00
46087;BME280;31824;49.648;8.640;2023-07-20T07:35:33;100223.00;;;20.19;100.00
46087;BME280;31824;49.648;8.640;2023-07-20T07:38:37;100214.34;;;20.07;100.00
46087;BME280;31824;49.648;8.640;2023-07-20T07:42:01;100214.16;;;20.20;100.00
46087;BME280;31824;49.648;8.640;2023-07-20T07:45:06;100207.69;;;20.32;100.00
46087;BME280;31824;49.648;8.640;2023-07-20T07:48:08;100209.94;;;20.24;100.00
46087;BME280;31824;49.648;8.640;2023-07-20T07:51:14;100216.50;;;20.31;100.00
46087;BME280;31824;49.648;8.640;2023-07-20T07:54:18;100225.00;;;20.23;100.00
46087;BME280;31824;49.648;8.640;2023-07-20T07:57:21;100220.03;;;19.97;100.00
46087;BME280;31824;49.648;8.640;2023-07-20T08:00:24;100220.91;;;19.97;100.00
46087;BME280;31824;49.648;8.640;2023-07-20T08:03:26;100233.66;;;20.03;100.00
46087;BME280;31824;49.648;8.640;2023-07-20T08:06:28;100235.50;;;19.87;100.00
46087;BME280;31824;49.648;8.640;2023-07-20T08:09:30;100229.28;;;19.72;100.00
46087;BME280;31824;49.648;8.640;2023-07-20T08:12:33;100230.75;;;19.82;100.00
46087;BME280;31824;49.648;8.640;2023-07-20T08:15:35;100227.81;;;19.94;100.00
46087;BME280;31824;49.648;8.640;2023-07-20T08:18:38;100227.50;;;19.87;100.00
46087;BME280;31824;49.648;8.640;2023-07-20T08:21:40;100222.34;;;20.07;100.00
46087;BME280;31824;49.648;8.640;2023-07-20T08:24:43;100222.09;;;20.19;100.00
46087;BME280;31824;49.648;8.640;2023-07-20T08:27:46;100222.50;;;20.43;100.00
46087;BME280;31824;49.648;8.640;2023-07-20T08:30:49;100224.56;;;20.49;100.00
46087;BME280;31824;49.648;8.640;2023-07-20T08:33:51;100224.81;;;20.53;100.00
46087;BME280;31824;49.648;8.640;2023-07-20T08:36:53;100215.06;;;20.54;100.00
46087;BME280;31824;49.648;8.640;2023-07-20T08:39:55;100224.84;;;20.70;100.00
46087;BME280;31824;49.648;8.640;2023-07-20T08:42:59;100213.56;;;20.76;100.00
46087;BME280;31824;49.648;8.640;2023-07-20T08:46:04;100226.47;;;20.68;100.00
46087;BME280;31824;49.648;8.640;2023-07-20T08:49:07;100216.69;;;20.85;100.00
46087;BME280;31824;49.648;8.640;2023-07-20T08:52:11;100218.44;;;20.84;100.00
46087;BME280;31824;49.648;8.640;2023-07-20T08:55:13;100223.41;;;20.95;100.00
46087;BME280;31824;49.648;8.640;2023-07-20T08:58:17;100223.28;;;21.10;100.00
46087;BME280;31824;49.648;8.640;2023-07-20T09:01:19;100217.63;;;21.03;100.00
46087;BME280;31824;49.648;8.640;2023-07-20T09:04:22;100212.41;;;21.06;100.00
46087;BME280;31824;49.648;8.640;2023-07-20T09:07:23;100214.88;;;21.20;100.00
46087;BME280;31824;49.648;8.640;2023-07-20T09:10:26;100215.09;;;21.42;100.00
46087;BME280;31824;49.648;8.640;2023-07-20T09:13:32;100217.97;;;21.47;100.00
46087;BME280;31824;49.648;8.640;2023-07-20T09:16:47;100214.66;;;21.33;100.00
46087;BME280;31824;49.648;8.640;2023-07-20T09:19:50;100207.56;;;21.34;100.00
46087;BME280;31824;49.648;8.640;2023-07-20T09:22:52;100202.44;;;21.56;100.00
46087;BME280;31824;49.648;8.640;2023-07-20T09:25:57;100208.09;;;21.63;100.00
46087;BME280;31824;49.648;8.640;2023-07-20T09:29:00;100212.50;;;21.80;100.00
46087;BME280;31824;49.648;8.640;2023-07-20T09:32:03;100215.16;;;21.44;100.00
46087;BME280;31824;49.648;8.640;2023-07-20T09:35:06;100220.06;;;21.35;100.00
46087;BME280;31824;49.648;8.640;2023-07-20T09:38:11;100205.09;;;21.38;100.00
46087;BME280;31824;49.648;8.640;2023-07-20T09:41:17;100208.00;;;21.43;100.00
46087;BME280;31824;49.648;8.640;2023-07-20T09:44:27;100204.22;;;21.75;100.00
46087;BME280;31824;49.648;8.640;2023-07-20T09:47:35;100203.78;;;21.84;100.00
46087;BME280;31824;49.648;8.640;2023-07-20T09:50:42;100198.78;;;22.12;100.00
46087;BME280;31824;49.648;8.640;2023-07-20T09:53:44;100190.66;;;22.49;100.00
46087;BME280;31824;49.648;8.640;2023-07-20T09:56:48;100186.44;;;22.54;100.00
46087;BME280;31824;49.648;8.640;2023-07-20T09:59:53;100187.31;;;22.96;100.00
46087;BME280;31824;49.648;8.640;2023-07-20T10:02:56;100189.84;;;22.92;100.00
46087;BME280;31824;49.648;8.640;2023-07-20T10:06:05;100183.78;;;22.97;100.00
46087;BME280;31824;49.648;8.640;2023-07-20T10:09:10;100188.69;;;22.65;100.00
46087;BME280;31824;49.648;8.640;2023-07-20T10:12:15;100185.47;;;22.52;100.00
46087;BME280;31824;49.648;8.640;2023-07-20T10:15:25;100188.13;;;22.33;100.00
46087;BME280;31824;49.648;8.640;2023-07-20T10:18:31;100181.50;;;22.24;100.00
46087;BME280;31824;49.648;8.640;2023-07-20T10:21:42;100185.91;;;22.22;100.00
46087;BME280;31824;49.648;8.640;2023-07-20T10:24:47;100175.41;;;22.47;100.00
46087;BME280;31824;49.648;8.640;2023-07-20T10:28:10;100166.34;;;22.85;100.00
46087;BME280;31824;49.648;8.640;2023-07-20T10:31:15;100184.44;;;23.12;100.00
46087;BME280;31824;49.648;8.640;2023-07-20T10:34:18;100176.59;;;22.74;100.00
46087;BME280;31824;49.648;8.640;2023-07-20T10:37:53;100164.31;;;22.58;100.00
46087;BME280;31824;49.648;8.640;2023-07-20T10:40:56;100160.44;;;22.52;100.00
46087;BME280;31824;49.648;8.640;2023-07-20T10:43:59;100162.16;;;22.92;100.00
46087;BME280;31824;49.648;8.640;2023-07-20T10:47:09;100152.84;;;23.05;100.00
46087;BME280;31824;49.648;8.640;2023-07-20T10:50:12;100148.13;;;23.19;100.00
46087;BME280;31824;49.648;8.640;2023-07-20T10:53:17;100144.31;;;23.36;100.00
46087;BME280;31824;49.648;8.640;2023-07-20T10:56:56;100147.25;;;23.65;100.00
46087;BME280;31824;49.648;8.640;2023-07-20T11:00:09;100141.66;;;23.59;100.00
46087;BME280;31824;49.648;8.640;2023-07-20T11:03:26;100139.78;;;23.34;100.00
46087;BME280;31824;49.648;8.640;2023-07-20T11:06:32;100143.22;;;23.54;100.00
46087;BME280;31824;49.648;8.640;2023-07-20T11:09:35;100145.31;;;23.38;100.00
46087;BME280;31824;49.648;8.640;2023-07-20T11:12:41;100137.31;;;23.17;100.00
46087;BME280;31824;49.648;8.640;2023-07-20T11:15:47;100134.09;;;23.05;100.00
46087;BME280;31824;49.648;8.640;2023-07-20T11:18:50;100135.22;;;23.10;100.00
46087;BME280;31824;49.648;8.640;2023-07-20T11:21:54;100132.69;;;23.13;100.00
46087;BME280;31824;49.648;8.640;2023-07-20T11:25:04;100131.00;;;23.38;100.00
46087;BME280;31824;49.648;8.640;2023-07-20T11:28:07;100128.13;;;23.33;100.00
46087;BME280;31824;49.648;8.640;2023-07-20T11:31:13;100128.03;;;23.53;100.00
46087;BME280;31824;49.648;8.640;2023-07-20T11:34:20;100132.44;;;23.52;100.00
46087;BME280;31824;49.648;8.640;2023-07-20T11:37:22;100126.31;;;23.11;100.00
46087;BME280;31824;49.648;8.640;2023-07-20T11:40:24;100129.09;;;22.91;100.00
46087;BME280;31824;49.648;8.640;2023-07-20T11:43:28;100125.94;;;23.02;100.00
46087;BME280;31824;49.648;8.640;2023-07-20T11:46:30;100121.97;;;23.13;100.00
46087;BME280;31824;49.648;8.640;2023-07-20T11:49:36;100123.22;;;23.00;100.00
46087;BME280;31824;49.648;8.640;2023-07-20T11:52:41;100122.66;;;23.09;100.00
46087;BME280;31824;49.648;8.640;2023-07-20T11:55:45;100118.91;;;23.04;100.00
46087;BME280;31824;49.648;8.640;2023-07-20T11:58:54;100115.94;;;22.98;100.00
46087;BME280;31824;49.648;8.640;2023-07-20T12:01:56;100111.25;;;22.92;100.00
46087;BME280;31824;49.648;8.640;2023-07-20T12:05:00;100111.66;;;23.01;100.00
46087;BME280;31824;49.648;8.640;2023-07-20T12:08:03;100109.25;;;23.09;100.00
46087;BME280;31824;49.648;8.640;2023-07-20T12:11:06;100107.06;;;22.99;100.00
46087;BME280;31824;49.648;8.640;2023-07-20T12:14:09;100105.69;;;23.08;100.00
46087;BME280;31824;49.648;8.640;2023-07-20T12:17:18;100111.16;;;23.33;100.00
46087;BME280;31824;49.648;8.640;2023-07-20T12:20:29;100102.06;;;23.29;100.00
46087;BME280;31824;49.648;8.640;2023-07-20T12:23:35;100091.06;;;23.46;100.00
46087;BME280;31824;49.648;8.640;2023-07-20T12:26:38;100092.75;;;23.42;100.00
46087;BME280;31824;49.648;8.640;2023-07-20T12:29:43;100081.44;;;23.98;100.00
46087;BME280;31824;49.648;8.640;2023-07-20T12:32:45;100080.50;;;23.97;100.00
46087;BME280;31824;49.648;8.640;2023-07-20T12:35:51;100087.38;;;24.65;100.00
46087;BME280;31824;49.648;8.640;2023-07-20T12:38:57;100084.69;;;24.92;100.00
46087;BME280;31824;49.648;8.640;2023-07-20T12:41:59;100085.31;;;24.57;100.00
46087;BME280;31824;49.648;8.640;2023-07-20T12:45:02;100085.84;;;24.21;100.00
46087;BME280;31824;49.648;8.640;2023-07-20T12:48:04;100084.78;;;24.42;100.00
46087;BME280;31824;49.648;8.640;2023-07-20T12:51:08;100080.34;;;24.96;100.00
46087;BME280;31824;49.648;8.640;2023-07-20T12:54:10;100073.91;;;24.63;100.00
46087;BME280;31824;49.648;8.640;2023-07-20T12:57:33;100075.53;;;24.59;100.00
46087;BME280;31824;49.648;8.640;2023-07-20T13:00:35;100078.59;;;24.44;100.00
46087;BME280;31824;49.648;8.640;2023-07-20T13:03:37;100074.75;;;24.36;100.00
46087;BME280;31824;49.648;8.640;2023-07-20T13:07:00;100071.50;;;25.00;100.00
46087;BME280;31824;49.648;8.640;2023-07-20T13:10:24;100071.97;;;24.86;100.00
46087;BME280;31824;49.648;8.640;2023-07-20T13:13:26;100062.75;;;24.78;100.00
46087;BME280;31824;49.648;8.640;2023-07-20T13:16:31;100056.31;;;24.47;100.00
46087;BME280;31824;49.648;8.640;2023-07-20T13:19:34;100058.31;;;24.80;100.00
46087;BME280;31824;49.648;8.640;2023-07-20T13:22:38;100049.22;;;25.33;100.00
46087;BME280;31824;49.648;8.640;2023-07-20T13:25:41;100046.25;;;25.23;100.00
46087;BME280;31824;49.648;8.640;2023-07-20T13:28:45;100051.34;;;24.85;100.00
46087;BME280;31824;49.648;8.640;2023-07-20T13:31:49;100036.47;;;25.25;100.00
46087;BME280;31824;49.648;8.640;2023-07-20T13:34:54;100040.84;;;25.22;100.00
46087;BME280;31824;49.648;8.640;2023-07-20T13:37:59;100043.19;;;24.56;100.00
46087;BME280;31824;49.648;8.640;2023-07-20T13:41:00;100044.34;;;24.37;100.00
46087;BME280;31824;49.648;8.640;2023-07-20T13:44:03;100044.59;;;24.71;100.00
46087;BME280;31824;49.648;8.640;2023-07-20T13:47:07;100042.41;;;24.86;100.00
46087;BME280;31824;49.648;8.640;2023-07-20T13:50:12;100044.09;;;24.83;100.00
46087;BME280;31824;49.648;8.640;2023-07-20T13:56:24;100025.94;;;25.95;100.00
46087;BME280;31824;49.648;8.640;2023-07-20T13:59:26;100021.78;;;26.77;100.00
46087;BME280;31824;49.648;8.640;2023-07-20T14:02:48;100028.50;;;26.58;100.00
46087;BME280;31824;49.648;8.640;2023-07-20T14:05:53;100024.75;;;25.84;100.00
46087;BME280;31824;49.648;8.640;2023-07-20T14:08:59;100020.44;;;25.28;100.00
46087;BME280;31824;49.648;8.640;2023-07-20T14:12:02;100024.00;;;24.99;100.00
46087;BME280;31824;49.648;8.640;2023-07-20T14:15:09;100029.28;;;24.68;100.00
46087;BME280;31824;49.648;8.640;2023-07-20T14:18:11;100014.03;;;24.40;100.00
46087;BME280;31824;49.648;8.640;2023-07-20T14:21:14;100024.63;;;24.37;100.00
46087;BME280;31824;49.648;8.640;2023-07-20T14:24:17;100020.78;;;24.28;100.00
46087;BME280;31824;49.648;8.640;2023-07-20T14:27:21;100016.47;;;24.34;100.00
46087;BME280;31824;49.648;8.640;2023-07-20T14:30:23;100013.47;;;24.24;100.00
46087;BME280;31824;49.648;8.640;2023-07-20T14:33:25;100014.25;;;24.48;100.00
46087;BME280;31824;49.648;8.640;2023-07-20T14:36:28;100007.97;;;24.47;100.00
46087;BME280;31824;49.648;8.640;2023-07-20T14:39:30;100000.94;;;24.51;100.00
46087;BME280;31824;49.648;8.640;2023-07-20T14:42:34;99993.53;;;25.91;100.00
46087;BME280;31824;49.648;8.640;2023-07-20T14:45:36;99989.03;;;25.91;100.00
46087;BME280;31824;49.648;8.640;2023-07-20T14:48:39;99996.78;;;25.47;100.00
46087;BME280;31824;49.648;8.640;2023-07-20T14:51:41;99987.47;;;25.05;100.00
46087;BME280;31824;49.648;8.640;2023-07-20T14:54:48;99996.19;;;25.57;100.00
46087;BME280;31824;49.648;8.640;2023-07-20T14:57:52;99990.22;;;25.68;100.00
46087;BME280;31824;49.648;8.640;2023-07-20T15:00:54;99983.91;;;26.01;100.00
46087;BME280;31824;49.648;8.640;2023-07-20T15:03:56;99989.22;;;25.98;100.00
46087;BME280;31824;49.648;8.640;2023-07-20T15:07:00;99977.59;;;25.35;100.00
46087;BME280;31824;49.648;8.640;2023-07-20T15:10:03;99973.31;;;25.41;100.00
46087;BME280;31824;49.648;8.640;2023-07-20T15:13:06;99963.69;;;25.19;100.00
46087;BME280;31824;49.648;8.640;2023-07-20T15:16:08;99969.66;;;25.71;100.00
46087;BME280;31824;49.648;8.640;2023-07-20T15:19:12;99980.47;;;26.05;100.00
46087;BME280;31824;49.648;8.640;2023-07-20T15:22:15;99975.38;;;26.52;100.00
46087;BME280;31824;49.648;8.640;2023-07-20T15:25:17;99968.13;;;26.50;100.00
46087;BME280;31824;49.648;8.640;2023-07-20T15:28:22;99953.03;;;26.56;100.00
46087;BME280;31824;49.648;8.640;2023-07-20T15:31:23;99947.56;;;26.91;100.00
46087;BME280;31824;49.648;8.640;2023-07-20T15:34:29;99947.69;;;26.98;100.00
46087;BME280;31824;49.648;8.640;2023-07-20T15:37:30;99951.03;;;26.87;100.00
46087;BME280;31824;49.648;8.640;2023-07-20T15:40:33;99947.41;;;26.47;100.00
46087;BME280;31824;49.648;8.640;2023-07-20T15:43:39;99939.28;;;26.82;100.00
46087;BME280;31824;49.648;8.640;2023-07-20T15:46:48;99931.47;;;26.96;100.00
46087;BME280;31824;49.648;8.640;2023-07-20T15:49:51;99933.50;;;27.49;100.00
46087;BME280;31824;49.648;8.640;2023-07-20T15:52:53;99932.81;;;27.17;100.00
46087;BME280;31824;49.648;8.640;2023-07-20T15:55:54;99929.91;;;26.68;100.00
46087;BME280;31824;49.648;8.640;2023-07-20T15:58:59;99921.94;;;26.34;100.00